Flight Track Log - Related Links

Times and Time Zones

All times are in EDT time to prevent confusion due to time zone crossing. See the SWA1688 flight status page for this flight to view local times or setup timezone preferences in your user account.

Time Position Orientation Groundspeed Altitude Reporting Facility
EDT Latitude Longitude Course Direction KTS MPH feet Rate Location/Type
Tue 09:20:29 PM 28.4167 -81.3000 164° South 151 174 800  Level Orlando TRACON
Tue 09:21:17 PM 28.3667 -81.2833 164° South 204 235 2,900 2,778 Climbing Orlando TRACON
Tue 09:22:17 PM 28.3333 -81.2333 127° Southeast 254 292 5,800 3,429 Climbing Orlando TRACON
Tue 09:23:23 PM 28.3500 -81.1667 74° East 230 265 10,100 3,101 Climbing Orlando TRACON
Tue 09:25:15 PM 28.4914 -81.1944 350° North 309 356 15,000 2,844 Climbing Jacksonville Center
Tue 09:26:16 PM 28.5878 -81.2281 343° North 333 383 18,300 3,150 Climbing Jacksonville Center
Tue 09:27:15 PM 28.6864 -81.2572 345° North 351 404 21,300 2,800 Climbing Jacksonville Center
Tue 09:28:16 PM 28.7931 -81.2933 343° North 373 429 23,900 2,350 Climbing Jacksonville Center
Tue 09:29:15 PM 28.9042 -81.3294 344° North 399 459 26,000 1,059 Climbing Jacksonville Center
Tue 09:30:15 PM 29.0153 -81.3633 345° North 406 467 26,000 694 Level Jacksonville Center
Tue 09:31:16 PM 29.1303 -81.3925 348° North 411 473 27,400 1,850 Climbing Jacksonville Center
Tue 09:32:15 PM 29.2494 -81.4028 356° North 416 479 29,700 2,269 Climbing Jacksonville Center
Tue 09:33:15 PM 29.3686 -81.4175 354° North 427 491 31,900 2,182 Climbing Jacksonville Center
Tue 09:34:16 PM 29.5003 -81.4322 354° North 427 491 34,100 2,200 Climbing Jacksonville Center
Tue 09:35:15 PM 29.6217 -81.4447 355° North 432 497 36,300 2,118 Climbing Jacksonville Center
Tue 09:36:15 PM 29.7447 -81.4431 North 432 497 38,300 2,083 Climbing Jacksonville Center
Tue 09:37:16 PM 29.8594 -81.4317 North 420 483 40,500 1,350 Climbing Jacksonville Center
Tue 09:38:15 PM 29.9719 -81.4181 North 409 471 41,000 250 Climbing Jacksonville Center
Tue 09:39:16 PM 30.0844 -81.4067 North 404 465 41,000  Level Jacksonville Center
Tue 09:40:16 PM 30.2014 -81.3953 North 409 471 41,000  Level Jacksonville Center
Tue 09:41:16 PM 30.3181 -81.3814 North 409 471 41,000  Level Jacksonville Center
Tue 09:42:15 PM 30.4392 -81.3722 North 415 478 41,000  Level Jacksonville Center
Tue 09:43:15 PM 30.5558 -81.3558 North 421 484 41,000  Level Jacksonville Center
Tue 09:44:15 PM 30.6597 -81.3108 20° North 427 491 41,000  Level Jacksonville Center
Tue 09:45:15 PM 30.7717 -81.2606 21° North 432 497 41,000  Level Jacksonville Center
Tue 09:46:16 PM 30.8839 -81.2103 21° North 432 497 41,000  Level Jacksonville Center
Tue 09:47:16 PM 30.9958 -81.1622 20° North 426 490 41,000  Level Jacksonville Center
Tue 09:48:15 PM 31.1058 -81.1142 21° North 426 490 41,000  Level Jacksonville Center
Tue 09:49:15 PM 31.2200 -81.0633 21° North 426 490 41,000  Level Jacksonville Center
Tue 09:50:16 PM 31.3444 -81.0025 23° Northeast 426 490 41,000  Level Jacksonville Center
Tue 09:51:15 PM 31.4564 -80.9539 20° North 433 498 41,000  Level Jacksonville Center
Tue 09:52:16 PM 31.5603 -80.9078 21° North 428 493 41,000  Level Jacksonville Center
Tue 09:53:16 PM 31.6803 -80.8517 22° Northeast 428 493 41,000  Level Jacksonville Center
Tue 09:54:16 PM 31.7944 -80.8028 20° North 428 493 41,000  Level Jacksonville Center
Tue 09:55:15 PM 31.8958 -80.7564 21° North 428 493 41,000  Level Jacksonville Center
Tue 09:56:16 PM 32.0203 -80.6994 21° North 428 493 41,000  Level Jacksonville Center
Tue 09:57:16 PM 32.1217 -80.6531 21° North 428 493 41,000  Level Jacksonville Center
Tue 09:58:16 PM 32.2314 -80.6036 21° North 423 487 41,000  Level Jacksonville Center
Tue 09:59:16 PM 32.3433 -80.5517 21° North 428 493 41,000  Level Jacksonville Center
Tue 10:00:15 PM 32.4550 -80.4994 22° Northeast 428 493 41,000  Level Jacksonville Center
Tue 10:01:16 PM 32.5647 -80.4472 22° Northeast 428 493 41,000  Level Jacksonville Center
Tue 10:02:15 PM 32.6764 -80.3975 21° North 423 487 41,000  Level Jacksonville Center
Tue 10:03:16 PM 32.7900 -80.3450 21° North 428 493 41,000  Level Jacksonville Center
Tue 10:04:16 PM 32.8975 -80.2925 22° Northeast 423 487 41,000  Level Jacksonville Center
Tue 10:05:15 PM 33.0258 -80.2317 22° Northeast 448 516 41,000  Level Jacksonville Center
Tue 10:06:15 PM 33.1269 -80.1867 20° North 435 501 41,000  Level Jacksonville Center
Tue 10:07:15 PM 33.2531 -80.1281 21° North 435 501 41,000  Level Jacksonville Center
Tue 10:08:16 PM 33.3583 -80.0750 23° Northeast 421 484 41,000  Level Jacksonville Center
Tue 10:09:16 PM 33.4678 -80.0242 21° North 416 479 41,000  Level Jacksonville Center
Tue 10:10:15 PM 33.5772 -79.9733 21° North 416 479 41,000  Level Jacksonville Center
Tue 10:11:15 PM 33.6803 -79.9125 26° Northeast 416 479 41,000  Level Jacksonville Center
Tue 10:12:15 PM 33.7828 -79.8392 31° Northeast 411 473 41,000  Level Jacksonville Center
Tue 10:13:15 PM 33.8875 -79.7653 30° Northeast 421 484 41,000  Level Jacksonville Center
Tue 10:14:15 PM 33.9897 -79.6917 31° Northeast 426 490 41,000  Level Jacksonville Center
Tue 10:16:22 PM 34.2028 -79.5392 31° Northeast 439 505 41,000  Level Washington Center
Tue 10:17:23 PM 34.3053 -79.4611 32° Northeast 439 505 41,000  Level Washington Center
Tue 10:18:24 PM 34.4122 -79.3856 30° Northeast 439 505 41,000  Level Washington Center
Tue 10:19:24 PM 34.5144 -79.3122 31° Northeast 439 505 41,000  Level Washington Center
Tue 10:20:22 PM 34.6214 -79.2336 31° Northeast 434 499 41,000  Level Washington Center
Tue 10:21:22 PM 34.7217 -79.1600 31° Northeast 434 499 41,000  Level Washington Center
Tue 10:22:22 PM 34.8219 -79.0858 31° Northeast 434 499 41,000  Level Washington Center
Tue 10:23:23 PM 34.9242 -79.0117 31° Northeast 429 494 41,000  Level Washington Center
Tue 10:24:21 PM 35.0244 -78.9375 31° Northeast 429 494 41,000  Level Washington Center
Tue 10:25:22 PM 35.1264 -78.8628 31° Northeast 429 494 41,000  Level Washington Center
Tue 10:26:22 PM 35.2244 -78.7906 31° Northeast 424 488 41,000  Level Washington Center
Tue 10:27:23 PM 35.3244 -78.7156 31° Northeast 424 488 41,000  Level Washington Center
Tue 10:28:21 PM 35.4289 -78.6356 32° Northeast 435 501 41,000  Level Washington Center
Tue 10:29:23 PM 35.5222 -78.5678 31° Northeast 430 495 41,000  Level Washington Center
Tue 10:30:23 PM 35.6308 -78.4822 33° Northeast 430 495 41,000  Level Washington Center
Tue 10:31:24 PM 35.7264 -78.4142 30° Northeast 430 495 41,000  Level Washington Center
Tue 10:32:24 PM 35.8242 -78.3408 31° Northeast 430 495 41,000  Level Washington Center
Tue 10:33:22 PM 35.9239 -78.2647 32° Northeast 425 489 41,000  Level Washington Center
Tue 10:34:23 PM 36.0256 -78.1886 31° Northeast 425 489 41,000  Level Washington Center
Tue 10:35:23 PM 36.1275 -78.1122 31° Northeast 425 489 41,000  Level Washington Center
Tue 10:36:21 PM 36.2292 -78.0331 32° Northeast 425 489 41,000  Level Washington Center
Tue 10:37:23 PM 36.3289 -77.9561 32° Northeast 420 483 41,000  Level Washington Center
Tue 10:38:24 PM 36.4264 -77.8817 32° Northeast 420 483 41,000  Level Washington Center
Tue 10:39:24 PM 36.5258 -77.8044 32° Northeast 420 483 41,000  Level Washington Center
Tue 10:40:22 PM 36.6233 -77.7244 33° Northeast 420 483 41,000  Level Washington Center
Tue 10:41:22 PM 36.7269 -77.6469 31° Northeast 420 483 41,000  Level Washington Center
Tue 10:42:23 PM 36.8261 -77.5664 33° Northeast 425 489 41,000  Level Washington Center
Tue 10:43:23 PM 36.9275 -77.4886 32° Northeast 419 482 41,000  Level Washington Center
Tue 10:44:22 PM 37.0289 -77.4103 32° Northeast 419 482 41,000  Level Washington Center
Tue 10:45:23 PM 37.1303 -77.3294 32° Northeast 419 482 41,000  Level Washington Center
Tue 10:46:23 PM 37.2317 -77.2508 32° Northeast 419 482 41,000  Level Washington Center
Tue 10:47:21 PM 37.3347 -77.1694 32° Northeast 419 482 41,000  Level Washington Center
Tue 10:48:22 PM 37.4444 -77.0750 34° Northeast 433 498 41,000  Level Washington Center
Tue 10:49:23 PM 37.5539 -76.9986 29° Northeast 433 498 41,000  Level Washington Center
Tue 10:50:21 PM 37.6528 -76.9164 33° Northeast 438 504 41,000  Level Washington Center
Tue 10:51:24 PM 37.7517 -76.8342 33° Northeast 432 497 41,000  Level Washington Center
Tue 10:52:21 PM 37.8528 -76.7542 32° Northeast 427 491 41,000  Level Washington Center
Tue 10:53:22 PM 37.9556 -76.6714 32° Northeast 427 491 41,000  Level Washington Center
Tue 10:54:23 PM 38.0503 -76.5936 33° Northeast 436 502 41,000  Level Washington Center
Tue 10:55:21 PM 38.1508 -76.5106 33° Northeast 436 502 41,000  Level Washington Center
Tue 10:56:21 PM 38.2536 -76.4300 32° Northeast 436 502 41,000  Level Washington Center
Tue 10:57:23 PM 38.3647 -76.3278 36° Northeast 436 502 41,000  Level Washington Center
Tue 10:58:24 PM 38.4656 -76.2361 35° Northeast 442 509 41,000  Level Washington Center
Tue 10:59:24 PM 38.5533 -76.1467 39° Northeast 450 518 41,000  Level Washington Center
Tue 11:00:22 PM 38.6664 -76.0464 35° Northeast 450 518 41,000  Level Washington Center
Tue 11:01:23 PM 38.7628 -75.9458 39° Northeast 450 518 41,000  Level Washington Center
Tue 11:02:21 PM 38.8608 -75.8503 37° Northeast 443 510 41,000  Level Washington Center
Tue 11:03:22 PM 38.9569 -75.7517 39° Northeast 443 510 41,000  Level Washington Center
Tue 11:04:21 PM 39.0531 -75.6583 37° Northeast 443 510 41,000  Level Washington Center
Tue 11:05:22 PM 39.1467 -75.5647 38° Northeast 443 510 41,000  Level Washington Center
Tue 11:06:23 PM 39.2406 -75.4683 38° Northeast 438 504 41,000  Level Washington Center
Tue 11:07:22 PM 39.3342 -75.3769 37° Northeast 438 504 41,000  Level Washington Center
Tue 11:08:22 PM 39.4236 -75.2825 39° Northeast 427 491 41,000  Level Washington Center
Tue 11:09:24 PM 39.5192 -75.1881 37° Northeast 422 486 41,000  Level Washington Center
Tue 11:10:22 PM 39.6083 -75.0958 39° Northeast 417 480 41,000  Level Washington Center
Tue 11:11:53 PM 39.7389 -74.9606 39° Northeast 415 478 41,000  Level New Center
Tue 11:12:55 PM 39.8275 -74.8714 38° Northeast 412 474 41,000  Level New Center
Tue 11:13:54 PM 39.9247 -74.7769 37° Northeast 412 474 41,000  Level New Center
Tue 11:14:56 PM 40.0133 -74.6817 39° Northeast 412 474 41,000  Level New Center
Tue 11:15:53 PM 40.1147 -74.6414 17° North 392 451 41,000  Level New Center
Tue 11:16:55 PM 40.2261 -74.6122 11° North 384 442 41,000  Level New Center
Tue 11:17:55 PM 40.3272 -74.5769 15° North 384 442 41,000  Level New Center
Tue 11:18:53 PM 40.4367 -74.5422 14° North 384 442 41,000  Level New Center
Tue 11:20:32 PM 40.6144 -74.4850 14° North 406 467 41,000  Level Boston Center
Tue 11:21:32 PM 40.7236 -74.4503 14° North 406 467 41,000 -200 Level Boston Center
Tue 11:22:32 PM 40.8325 -74.4178 13° North 401 461 40,600 -850 Descending Boston Center
Tue 11:23:32 PM 40.9519 -74.3803 13° North 396 456 39,300 -1,950 Descending Boston Center
Tue 11:24:32 PM 41.0483 -74.3556 11° North 396 456 36,700 -2,400 Descending Boston Center
Tue 11:25:32 PM 41.1508 -74.3228 14° North 391 450 34,500 -2,850 Descending Boston Center
Tue 11:26:32 PM 41.2619 -74.2819 15° North 375 432 31,000 -3,050 Descending Boston Center
Tue 11:27:32 PM 41.3583 -74.2544 12° North 363 418 28,400 -2,244 Descending Boston Center
Tue 11:28:43 PM 41.4528 -74.2211 15° North 358 412 26,100 -1,091 Descending Boston Center
Tue 11:29:44 PM 41.5614 -74.1908 12° North 353 406 26,000 -50 Descending Boston Center
Tue 11:30:44 PM 41.6578 -74.1600 13° North 358 412 26,000 -900 Level Boston Center
Tue 11:31:44 PM 41.7500 -74.1292 14° North 351 404 24,200 -2,150 Descending Boston Center
Tue 11:32:44 PM 41.8358 -74.1036 13° North 335 386 21,700 -2,650 Descending Boston Center
Tue 11:33:44 PM 41.9300 -74.0725 14° North 314 361 18,900 -2,550 Descending Boston Center
Tue 11:34:44 PM 42.0075 -74.0467 14° North 309 356 16,600 -2,550 Descending Boston Center
Tue 11:35:44 PM 42.1039 -74.0156 13° North 314 361 13,800 -2,150 Descending Boston Center
Tue 11:36:44 PM 42.1814 -73.9867 15° North 319 367 12,300 -1,769 Descending Boston Center
Tue 11:37:02 PM 42.2128 -73.9733 17° North 310 357 11,500 -2,200 Descending Boston Center
Tue 11:37:44 PM 42.2653 -73.9439 23° Northeast 300 345 10,100 -2,100 Descending Boston Center
Tue 11:38:02 PM 42.2864 -73.9331 21° North 282 325 9,400 -1,800 Descending Boston Center
Tue 11:38:44 PM 42.3306 -73.9117 20° North 284 327 8,300 -1,967 Descending Boston Center
Tue 11:39:03 PM 42.3578 -73.9011 16° North 263 303 7,400 -2,300 Descending Boston Center
Tue 11:39:44 PM 42.4058 -73.8742 22° Northeast 269 310 6,000 -2,100 Descending Boston Center
Tue 11:40:03 PM 42.4247 -73.8661 17° North 258 297 5,300 -1,831 Descending Boston Center
Tue 11:40:43 PM 42.4647 -73.8444 22° Northeast 259 298 4,200 -1,377 Descending Boston Center
Tue 11:41:04 PM 42.4919 -73.8311 20° North 253 291 3,900 -800 Descending Boston Center
Tue 11:41:43 PM 42.5297 -73.8122 20° North 230 265 3,400 -787 Descending Boston Center
Tue 11:42:05 PM 42.5464 -73.8042 20° North 196 226 3,100 -689 Descending Boston Center
Tue 11:42:44 PM 42.5756 -73.7992 North 197 227 2,700 -545 Descending Boston Center
Tue 11:43:11 PM 42.5986 -73.8025 354° North 159 183 2,500 -200 Descending Boston Center
Tue 11:43:44 PM 42.6194 -73.8000 North 175 201 2,500 -393 Level Boston Center
Tue 11:44:12 PM 42.6422 -73.8033 354° North 147 169 2,100 -100 Descending Boston Center
Tue 11:44:44 PM 42.6736 -73.7983 North 170 196 2,400 -590 Climbing Boston Center
Tue 11:45:13 PM 42.6797 -73.8042 325° Northwest 134 154 1,500 -1,146 Descending Boston Center
Tue 11:46:13 PM 42.7131 -73.8078 355° North 123 142 700 -800 Descending Boston Center
Tue 11:49:00 PM 42.7333 -73.8000 10° North  Level FlightAware
Tue 11:56:00 PM 42.7491 -73.8020 10° North  Level Estimated

Login

Don't have an account? Register now (free) for customized features, flight alerts, and more!